sensor_id;sensor_type;location;lat;lon;timestamp;temperature;humidity
66035;HTU21D;52805;51.074;5.842;2023-06-10T00:02:04;24.68;118.99
66035;HTU21D;52805;51.074;5.842;2023-06-10T00:04:29;24.63;118.99
66035;HTU21D;52805;51.074;5.842;2023-06-10T00:06:55;24.61;118.99
66035;HTU21D;52805;51.074;5.842;2023-06-10T00:09:22;24.57;118.99
66035;HTU21D;52805;51.074;5.842;2023-06-10T00:11:48;24.54;118.99
66035;HTU21D;52805;51.074;5.842;2023-06-10T00:14:14;24.57;118.99
66035;HTU21D;52805;51.074;5.842;2023-06-10T00:16:40;24.49;118.99
66035;HTU21D;52805;51.074;5.842;2023-06-10T00:19:06;24.45;118.99
66035;HTU21D;52805;51.074;5.842;2023-06-10T00:21:34;24.41;118.99
66035;HTU21D;52805;51.074;5.842;2023-06-10T00:24:06;24.36;118.99
66035;HTU21D;52805;51.074;5.842;2023-06-10T00:26:32;24.30;118.99
66035;HTU21D;52805;51.074;5.842;2023-06-10T00:28:59;24.27;118.99
66035;HTU21D;52805;51.074;5.842;2023-06-10T00:31:27;24.20;118.99
66035;HTU21D;52805;51.074;5.842;2023-06-10T00:33:52;24.18;118.99
66035;HTU21D;52805;51.074;5.842;2023-06-10T00:36:19;24.14;118.99
66035;HTU21D;52805;51.074;5.842;2023-06-10T00:38:45;24.11;118.99
66035;HTU21D;52805;51.074;5.842;2023-06-10T00:41:10;24.04;118.99
66035;HTU21D;52805;51.074;5.842;2023-06-10T00:43:36;24.00;118.99
66035;HTU21D;52805;51.074;5.842;2023-06-10T00:46:02;23.95;118.99
66035;HTU21D;52805;51.074;5.842;2023-06-10T00:48:29;23.90;118.99
66035;HTU21D;52805;51.074;5.842;2023-06-10T00:50:56;23.86;118.99
66035;HTU21D;52805;51.074;5.842;2023-06-10T00:53:23;23.80;118.99
66035;HTU21D;52805;51.074;5.842;2023-06-10T00:55:50;23.75;118.99
66035;HTU21D;52805;51.074;5.842;2023-06-10T00:58:16;23.71;118.99
66035;HTU21D;52805;51.074;5.842;2023-06-10T01:00:42;23.67;118.99
66035;HTU21D;52805;51.074;5.842;2023-06-10T01:03:08;23.61;118.99
66035;HTU21D;52805;51.074;5.842;2023-06-10T01:05:35;23.58;118.99
66035;HTU21D;52805;51.074;5.842;2023-06-10T01:08:09;23.55;118.99
66035;HTU21D;52805;51.074;5.842;2023-06-10T01:10:51;23.49;118.99
66035;HTU21D;52805;51.074;5.842;2023-06-10T01:13:22;23.43;118.99
66035;HTU21D;52805;51.074;5.842;2023-06-10T01:15:51;23.40;118.99
66035;HTU21D;52805;51.074;5.842;2023-06-10T01:18:17;23.35;118.99
66035;HTU21D;52805;51.074;5.842;2023-06-10T01:20:44;23.31;118.99
66035;HTU21D;52805;51.074;5.842;2023-06-10T01:23:11;23.25;118.99
66035;HTU21D;52805;51.074;5.842;2023-06-10T01:25:52;23.22;118.99
66035;HTU21D;52805;51.074;5.842;2023-06-10T01:28:24;23.17;118.99
66035;HTU21D;52805;51.074;5.842;2023-06-10T01:31:29;23.12;118.99
66035;HTU21D;52805;51.074;5.842;2023-06-10T01:34:01;23.07;118.99
66035;HTU21D;52805;51.074;5.842;2023-06-10T01:36:28;23.01;118.99
66035;HTU21D;52805;51.074;5.842;2023-06-10T01:38:56;22.95;118.99
66035;HTU21D;52805;51.074;5.842;2023-06-10T01:41:24;22.93;118.99
66035;HTU21D;52805;51.074;5.842;2023-06-10T01:43:51;22.87;118.99
66035;HTU21D;52805;51.074;5.842;2023-06-10T01:46:17;22.83;118.99
66035;HTU21D;52805;51.074;5.842;2023-06-10T01:48:47;22.78;118.99
66035;HTU21D;52805;51.074;5.842;2023-06-10T01:51:15;22.76;118.99
66035;HTU21D;52805;51.074;5.842;2023-06-10T01:53:41;22.73;118.99
66035;HTU21D;52805;51.074;5.842;2023-06-10T01:56:06;22.68;118.99
66035;HTU21D;52805;51.074;5.842;2023-06-10T01:58:32;22.65;118.99
66035;HTU21D;52805;51.074;5.842;2023-06-10T02:00:58;22.62;118.99
66035;HTU21D;52805;51.074;5.842;2023-06-10T02:03:23;22.57;118.99
66035;HTU21D;52805;51.074;5.842;2023-06-10T02:05:49;22.54;118.99
66035;HTU21D;52805;51.074;5.842;2023-06-10T02:08:15;22.49;118.99
66035;HTU21D;52805;51.074;5.842;2023-06-10T02:10:41;22.46;118.99
66035;HTU21D;52805;51.074;5.842;2023-06-10T02:13:07;22.40;118.99
66035;HTU21D;52805;51.074;5.842;2023-06-10T02:15:33;22.37;118.99
66035;HTU21D;52805;51.074;5.842;2023-06-10T02:17:59;22.32;118.99
66035;HTU21D;52805;51.074;5.842;2023-06-10T02:20:26;22.28;118.99
66035;HTU21D;52805;51.074;5.842;2023-06-10T02:22:52;22.24;118.99
66035;HTU21D;52805;51.074;5.842;2023-06-10T02:25:18;22.19;118.99
66035;HTU21D;52805;51.074;5.842;2023-06-10T02:27:44;22.14;118.99
66035;HTU21D;52805;51.074;5.842;2023-06-10T02:30:10;22.11;118.99
66035;HTU21D;52805;51.074;5.842;2023-06-10T02:32:36;22.08;118.99
66035;HTU21D;52805;51.074;5.842;2023-06-10T02:35:02;22.04;118.99
66035;HTU21D;52805;51.074;5.842;2023-06-10T02:37:29;21.97;118.99
66035;HTU21D;52805;51.074;5.842;2023-06-10T02:39:55;21.96;118.99
66035;HTU21D;52805;51.074;5.842;2023-06-10T02:42:22;21.91;118.99
66035;HTU21D;52805;51.074;5.842;2023-06-10T02:44:49;21.88;118.99
66035;HTU21D;52805;51.074;5.842;2023-06-10T02:47:22;21.85;118.99
66035;HTU21D;52805;51.074;5.842;2023-06-10T02:49:48;21.84;118.99
66035;HTU21D;52805;51.074;5.842;2023-06-10T02:52:14;21.81;118.99
66035;HTU21D;52805;51.074;5.842;2023-06-10T02:54:40;21.77;118.99
66035;HTU21D;52805;51.074;5.842;2023-06-10T02:57:07;21.74;118.99
66035;HTU21D;52805;51.074;5.842;2023-06-10T02:59:33;21.70;118.99
66035;HTU21D;52805;51.074;5.842;2023-06-10T03:01:59;21.68;118.99
66035;HTU21D;52805;51.074;5.842;2023-06-10T03:04:28;21.64;118.99
66035;HTU21D;52805;51.074;5.842;2023-06-10T03:07:03;21.64;118.99
66035;HTU21D;52805;51.074;5.842;2023-06-10T03:09:31;21.60;118.99
66035;HTU21D;52805;51.074;5.842;2023-06-10T03:11:59;21.58;118.99
66035;HTU21D;52805;51.074;5.842;2023-06-10T03:14:27;21.54;118.99
66035;HTU21D;52805;51.074;5.842;2023-06-10T03:16:53;21.51;118.99
66035;HTU21D;52805;51.074;5.842;2023-06-10T03:19:22;21.50;118.99
66035;HTU21D;52805;51.074;5.842;2023-06-10T03:22:08;21.48;118.99
66035;HTU21D;52805;51.074;5.842;2023-06-10T03:24:37;21.45;118.99
66035;HTU21D;52805;51.074;5.842;2023-06-10T03:27:07;21.38;118.99
66035;HTU21D;52805;51.074;5.842;2023-06-10T03:29:33;21.37;118.99
66035;HTU21D;52805;51.074;5.842;2023-06-10T03:31:59;21.35;118.99
66035;HTU21D;52805;51.074;5.842;2023-06-10T03:34:26;21.33;118.99
66035;HTU21D;52805;51.074;5.842;2023-06-10T03:36:52;21.30;118.99
66035;HTU21D;52805;51.074;5.842;2023-06-10T03:39:18;21.25;118.99
66035;HTU21D;52805;51.074;5.842;2023-06-10T03:41:44;21.25;118.99
66035;HTU21D;52805;51.074;5.842;2023-06-10T03:44:10;21.25;118.99
66035;HTU21D;52805;51.074;5.842;2023-06-10T03:46:36;21.23;118.99
66035;HTU21D;52805;51.074;5.842;2023-06-10T03:49:02;21.24;118.99
66035;HTU21D;52805;51.074;5.842;2023-06-10T03:51:29;21.23;118.99
66035;HTU21D;52805;51.074;5.842;2023-06-10T03:53:55;21.20;118.99
66035;HTU21D;52805;51.074;5.842;2023-06-10T03:56:21;21.18;118.99
66035;HTU21D;52805;51.074;5.842;2023-06-10T03:58:47;21.19;118.99
66035;HTU21D;52805;51.074;5.842;2023-06-10T04:01:13;21.20;118.99
66035;HTU21D;52805;51.074;5.842;2023-06-10T04:03:39;21.18;118.99
66035;HTU21D;52805;51.074;5.842;2023-06-10T04:06:07;21.19;118.99
66035;HTU21D;52805;51.074;5.842;2023-06-10T04:08:33;21.17;118.99
66035;HTU21D;52805;51.074;5.842;2023-06-10T04:10:59;21.16;118.99
66035;HTU21D;52805;51.074;5.842;2023-06-10T04:13:26;21.15;118.99
66035;HTU21D;52805;51.074;5.842;2023-06-10T04:15:55;21.17;118.99
66035;HTU21D;52805;51.074;5.842;2023-06-10T04:18:21;21.17;118.99
66035;HTU21D;52805;51.074;5.842;2023-06-10T04:20:48;21.17;118.99
66035;HTU21D;52805;51.074;5.842;2023-06-10T04:23:13;21.15;118.99
66035;HTU21D;52805;51.074;5.842;2023-06-10T04:25:41;21.15;118.99
66035;HTU21D;52805;51.074;5.842;2023-06-10T04:28:08;21.15;118.99
66035;HTU21D;52805;51.074;5.842;2023-06-10T04:30:34;21.16;118.99
66035;HTU21D;52805;51.074;5.842;2023-06-10T04:33:00;21.20;118.99
66035;HTU21D;52805;51.074;5.842;2023-06-10T04:35:26;21.22;118.99
66035;HTU21D;52805;51.074;5.842;2023-06-10T04:37:57;21.23;118.99
66035;HTU21D;52805;51.074;5.842;2023-06-10T04:40:23;21.24;118.99
66035;HTU21D;52805;51.074;5.842;2023-06-10T04:42:48;21.25;118.99
66035;HTU21D;52805;51.074;5.842;2023-06-10T04:45:14;21.29;118.99
66035;HTU21D;52805;51.074;5.842;2023-06-10T04:47:40;21.30;118.99
66035;HTU21D;52805;51.074;5.842;2023-06-10T04:50:06;21.31;118.99
66035;HTU21D;52805;51.074;5.842;2023-06-10T04:52:32;21.31;118.99
66035;HTU21D;52805;51.074;5.842;2023-06-10T04:54:59;21.31;118.99
66035;HTU21D;52805;51.074;5.842;2023-06-10T04:57:25;21.34;118.99
66035;HTU21D;52805;51.074;5.842;2023-06-10T04:59:53;21.37;118.99
66035;HTU21D;52805;51.074;5.842;2023-06-10T05:02:18;21.38;118.99
66035;HTU21D;52805;51.074;5.842;2023-06-10T05:04:44;21.39;118.99
66035;HTU21D;52805;51.074;5.842;2023-06-10T05:07:10;21.39;118.99
66035;HTU21D;52805;51.074;5.842;2023-06-10T05:09:35;21.43;118.99
66035;HTU21D;52805;51.074;5.842;2023-06-10T05:12:03;21.45;118.99
66035;HTU21D;52805;51.074;5.842;2023-06-10T05:14:29;21.47;118.99
66035;HTU21D;52805;51.074;5.842;2023-06-10T05:16:55;21.50;118.99
66035;HTU21D;52805;51.074;5.842;2023-06-10T05:19:20;21.52;118.99
66035;HTU21D;52805;51.074;5.842;2023-06-10T05:21:46;21.55;118.99
66035;HTU21D;52805;51.074;5.842;2023-06-10T05:24:12;21.61;118.99
66035;HTU21D;52805;51.074;5.842;2023-06-10T05:26:37;21.64;118.99
66035;HTU21D;52805;51.074;5.842;2023-06-10T05:29:04;21.66;118.99
66035;HTU21D;52805;51.074;5.842;2023-06-10T05:31:30;21.69;118.99
66035;HTU21D;52805;51.074;5.842;2023-06-10T05:33:56;21.74;118.99
66035;HTU21D;52805;51.074;5.842;2023-06-10T05:36:22;21.75;118.99
66035;HTU21D;52805;51.074;5.842;2023-06-10T05:38:48;21.78;118.99
66035;HTU21D;52805;51.074;5.842;2023-06-10T05:41:13;21.81;118.99
66035;HTU21D;52805;51.074;5.842;2023-06-10T05:43:39;21.82;118.99
66035;HTU21D;52805;51.074;5.842;2023-06-10T05:46:05;21.88;118.99
66035;HTU21D;52805;51.074;5.842;2023-06-10T05:48:31;21.90;118.99
66035;HTU21D;52805;51.074;5.842;2023-06-10T05:50:56;21.88;118.99
66035;HTU21D;52805;51.074;5.842;2023-06-10T05:53:22;21.91;118.99
66035;HTU21D;52805;51.074;5.842;2023-06-10T05:55:48;21.96;118.99
66035;HTU21D;52805;51.074;5.842;2023-06-10T05:58:14;21.99;118.99
66035;HTU21D;52805;51.074;5.842;2023-06-10T06:00:40;22.05;118.99
66035;HTU21D;52805;51.074;5.842;2023-06-10T06:03:07;22.12;118.99
66035;HTU21D;52805;51.074;5.842;2023-06-10T06:05:36;22.16;118.99
66035;HTU21D;52805;51.074;5.842;2023-06-10T06:08:04;22.21;118.99
66035;HTU21D;52805;51.074;5.842;2023-06-10T06:10:30;22.26;118.99
66035;HTU21D;52805;51.074;5.842;2023-06-10T06:12:56;22.31;118.99
66035;HTU21D;52805;51.074;5.842;2023-06-10T06:15:22;22.38;118.99
66035;HTU21D;52805;51.074;5.842;2023-06-10T06:17:48;22.43;118.99
66035;HTU21D;52805;51.074;5.842;2023-06-10T06:20:14;22.47;118.99
66035;HTU21D;52805;51.074;5.842;2023-06-10T06:22:42;22.51;118.99
66035;HTU21D;52805;51.074;5.842;2023-06-10T06:25:07;22.57;118.99
66035;HTU21D;52805;51.074;5.842;2023-06-10T06:27:33;22.64;118.99
66035;HTU21D;52805;51.074;5.842;2023-06-10T06:29:59;22.69;118.99
66035;HTU21D;52805;51.074;5.842;2023-06-10T06:32:25;22.76;118.99
66035;HTU21D;52805;51.074;5.842;2023-06-10T06:34:53;22.80;118.99
66035;HTU21D;52805;51.074;5.842;2023-06-10T06:37:24;22.85;118.99
66035;HTU21D;52805;51.074;5.842;2023-06-10T06:39:54;22.90;118.99
66035;HTU21D;52805;51.074;5.842;2023-06-10T06:42:20;22.97;118.99
66035;HTU21D;52805;51.074;5.842;2023-06-10T06:44:57;23.05;118.99
66035;HTU21D;52805;51.074;5.842;2023-06-10T06:47:22;23.10;118.99
66035;HTU21D;52805;51.074;5.842;2023-06-10T06:49:48;23.17;118.99
66035;HTU21D;52805;51.074;5.842;2023-06-10T06:52:15;23.24;118.99
66035;HTU21D;52805;51.074;5.842;2023-06-10T06:54:41;23.28;118.99
66035;HTU21D;52805;51.074;5.842;2023-06-10T06:57:07;23.37;118.99
66035;HTU21D;52805;51.074;5.842;2023-06-10T06:59:33;23.42;118.99
66035;HTU21D;52805;51.074;5.842;2023-06-10T07:01:59;23.51;118.99
66035;HTU21D;52805;51.074;5.842;2023-06-10T07:04:25;23.58;118.99
66035;HTU21D;52805;51.074;5.842;2023-06-10T07:06:51;23.65;118.99
66035;HTU21D;52805;51.074;5.842;2023-06-10T07:09:16;23.70;118.99
66035;HTU21D;52805;51.074;5.842;2023-06-10T07:11:43;23.79;118.99
66035;HTU21D;52805;51.074;5.842;2023-06-10T07:14:09;23.86;118.99
66035;HTU21D;52805;51.074;5.842;2023-06-10T07:16:34;23.92;118.99
66035;HTU21D;52805;51.074;5.842;2023-06-10T07:19:00;24.00;118.99
66035;HTU21D;52805;51.074;5.842;2023-06-10T07:21:26;24.10;118.99
66035;HTU21D;52805;51.074;5.842;2023-06-10T07:23:54;24.19;118.99
66035;HTU21D;52805;51.074;5.842;2023-06-10T07:26:22;24.26;118.99
66035;HTU21D;52805;51.074;5.842;2023-06-10T07:28:48;24.34;118.99
66035;HTU21D;52805;51.074;5.842;2023-06-10T07:31:14;24.44;118.99
66035;HTU21D;52805;51.074;5.842;2023-06-10T07:33:40;24.51;118.99
66035;HTU21D;52805;51.074;5.842;2023-06-10T07:36:06;24.59;118.99
66035;HTU21D;52805;51.074;5.842;2023-06-10T07:38:32;24.64;118.99
66035;HTU21D;52805;51.074;5.842;2023-06-10T07:40:58;24.73;118.99
66035;HTU21D;52805;51.074;5.842;2023-06-10T07:43:24;24.77;118.99
66035;HTU21D;52805;51.074;5.842;2023-06-10T07:45:50;24.86;118.99
66035;HTU21D;52805;51.074;5.842;2023-06-10T07:48:16;24.91;118.99
66035;HTU21D;52805;51.074;5.842;2023-06-10T07:50:41;24.98;118.99
66035;HTU21D;52805;51.074;5.842;2023-06-10T07:53:07;25.06;118.99
66035;HTU21D;52805;51.074;5.842;2023-06-10T07:55:33;25.06;118.99
66035;HTU21D;52805;51.074;5.842;2023-06-10T07:57:59;25.13;118.99
66035;HTU21D;52805;51.074;5.842;2023-06-10T08:00:24;25.21;118.99
66035;HTU21D;52805;51.074;5.842;2023-06-10T08:02:50;25.29;118.99
66035;HTU21D;52805;51.074;5.842;2023-06-10T08:05:16;25.38;118.99
66035;HTU21D;52805;51.074;5.842;2023-06-10T08:07:44;25.42;118.99
66035;HTU21D;52805;51.074;5.842;2023-06-10T08:10:10;25.47;118.99
66035;HTU21D;52805;51.074;5.842;2023-06-10T08:12:36;25.54;118.99
66035;HTU21D;52805;51.074;5.842;2023-06-10T08:15:03;25.66;118.99
66035;HTU21D;52805;51.074;5.842;2023-06-10T08:17:30;25.72;118.99
66035;HTU21D;52805;51.074;5.842;2023-06-10T08:19:55;25.79;118.99
66035;HTU21D;52805;51.074;5.842;2023-06-10T08:22:21;25.89;118.99
66035;HTU21D;52805;51.074;5.842;2023-06-10T08:24:47;25.96;118.99
66035;HTU21D;52805;51.074;5.842;2023-06-10T08:27:13;26.02;118.99
66035;HTU21D;52805;51.074;5.842;2023-06-10T08:29:39;26.07;118.99
66035;HTU21D;52805;51.074;5.842;2023-06-10T08:32:05;26.15;118.99
66035;HTU21D;52805;51.074;5.842;2023-06-10T08:34:34;26.23;118.99
66035;HTU21D;52805;51.074;5.842;2023-06-10T08:37:01;26.31;118.99
66035;HTU21D;52805;51.074;5.842;2023-06-10T08:39:27;26.35;118.99
66035;HTU21D;52805;51.074;5.842;2023-06-10T08:42:09;26.39;118.99
66035;HTU21D;52805;51.074;5.842;2023-06-10T08:44:36;26.46;118.99
66035;HTU21D;52805;51.074;5.842;2023-06-10T08:47:13;26.55;118.99
66035;HTU21D;52805;51.074;5.842;2023-06-10T08:49:44;26.58;118.99
66035;HTU21D;52805;51.074;5.842;2023-06-10T08:52:15;26.62;118.99
66035;HTU21D;52805;51.074;5.842;2023-06-10T08:54:46;26.68;118.99
66035;HTU21D;52805;51.074;5.842;2023-06-10T08:57:16;26.77;118.99
66035;HTU21D;52805;51.074;5.842;2023-06-10T08:59:43;26.79;118.99
66035;HTU21D;52805;51.074;5.842;2023-06-10T09:02:09;26.83;118.99
66035;HTU21D;52805;51.074;5.842;2023-06-10T09:04:36;26.94;118.99
66035;HTU21D;52805;51.074;5.842;2023-06-10T09:07:02;27.01;118.99
66035;HTU21D;52805;51.074;5.842;2023-06-10T09:09:29;27.12;118.99
66035;HTU21D;52805;51.074;5.842;2023-06-10T09:11:58;27.21;118.99
66035;HTU21D;52805;51.074;5.842;2023-06-10T09:14:23;27.28;118.99
66035;HTU21D;52805;51.074;5.842;2023-06-10T09:16:49;27.34;118.99
66035;HTU21D;52805;51.074;5.842;2023-06-10T09:19:16;27.39;118.99
66035;HTU21D;52805;51.074;5.842;2023-06-10T09:21:42;27.45;118.99
66035;HTU21D;52805;51.074;5.842;2023-06-10T09:24:08;27.56;118.99
66035;HTU21D;52805;51.074;5.842;2023-06-10T09:26:34;27.66;118.99
66035;HTU21D;52805;51.074;5.842;2023-06-10T09:29:04;27.71;118.99
66035;HTU21D;52805;51.074;5.842;2023-06-10T09:31:32;27.79;118.99
66035;HTU21D;52805;51.074;5.842;2023-06-10T09:34:13;27.79;118.99
66035;HTU21D;52805;51.074;5.842;2023-06-10T09:36:40;27.87;118.99
66035;HTU21D;52805;51.074;5.842;2023-06-10T09:39:14;27.99;118.99
66035;HTU21D;52805;51.074;5.842;2023-06-10T09:41:42;28.06;118.99
66035;HTU21D;52805;51.074;5.842;2023-06-10T09:44:16;28.14;118.99
66035;HTU21D;52805;51.074;5.842;2023-06-10T09:46:45;28.21;118.99
66035;HTU21D;52805;51.074;5.842;2023-06-10T09:49:11;28.28;118.99
66035;HTU21D;52805;51.074;5.842;2023-06-10T09:51:37;28.37;118.99
66035;HTU21D;52805;51.074;5.842;2023-06-10T09:54:03;28.46;118.99
66035;HTU21D;52805;51.074;5.842;2023-06-10T09:56:34;28.58;118.99
66035;HTU21D;52805;51.074;5.842;2023-06-10T09:59:01;28.68;118.99
66035;HTU21D;52805;51.074;5.842;2023-06-10T10:01:27;28.75;116.16
66035;HTU21D;52805;51.074;5.842;2023-06-10T10:03:53;28.85;112.75
66035;HTU21D;52805;51.074;5.842;2023-06-10T10:06:20;28.87;110.17
66035;HTU21D;52805;51.074;5.842;2023-06-10T10:08:48;28.92;109.56
66035;HTU21D;52805;51.074;5.842;2023-06-10T10:11:17;29.04;104.57
66035;HTU21D;52805;51.074;5.842;2023-06-10T10:13:45;29.09;104.70
66035;HTU21D;52805;51.074;5.842;2023-06-10T10:16:16;29.14;104.21
66035;HTU21D;52805;51.074;5.842;2023-06-10T10:18:47;29.22;103.73
66035;HTU21D;52805;51.074;5.842;2023-06-10T10:21:22;29.33;102.68
66035;HTU21D;52805;51.074;5.842;2023-06-10T10:24:12;29.45;102.59
66035;HTU21D;52805;51.074;5.842;2023-06-10T10:26:38;29.53;102.51
66035;HTU21D;52805;51.074;5.842;2023-06-10T10:29:23;29.65;100.98
66035;HTU21D;52805;51.074;5.842;2023-06-10T10:31:56;29.71;97.23
66035;HTU21D;52805;51.074;5.842;2023-06-10T10:34:30;29.78;96.31
66035;HTU21D;52805;51.074;5.842;2023-06-10T10:36:58;29.87;97.16
66035;HTU21D;52805;51.074;5.842;2023-06-10T10:39:24;29.96;96.55
66035;HTU21D;52805;51.074;5.842;2023-06-10T10:41:51;30.05;96.23
66035;HTU21D;52805;51.074;5.842;2023-06-10T10:44:17;30.18;95.35
66035;HTU21D;52805;51.074;5.842;2023-06-10T10:46:49;30.19;91.09
66035;HTU21D;52805;51.074;5.842;2023-06-10T10:49:15;30.21;90.92
66035;HTU21D;52805;51.074;5.842;2023-06-10T10:51:59;30.31;92.55
66035;HTU21D;52805;51.074;5.842;2023-06-10T10:57:19;30.54;93.43
66035;HTU21D;52805;51.074;5.842;2023-06-10T10:59:51;30.65;91.43
66035;HTU21D;52805;51.074;5.842;2023-06-10T11:02:18;30.77;89.43
66035;HTU21D;52805;51.074;5.842;2023-06-10T11:04:48;30.85;86.54
66035;HTU21D;52805;51.074;5.842;2023-06-10T11:07:14;30.92;87.15
66035;HTU21D;52805;51.074;5.842;2023-06-10T11:12:50;31.09;84.40
66035;HTU21D;52805;51.074;5.842;2023-06-10T11:15:20;31.20;82.29
66035;HTU21D;52805;51.074;5.842;2023-06-10T11:18:06;31.29;81.01
66035;HTU21D;52805;51.074;5.842;2023-06-10T11:31:24;31.74;70.42
66035;HTU21D;52805;51.074;5.842;2023-06-10T11:33:58;31.80;70.50
66035;HTU21D;52805;51.074;5.842;2023-06-10T11:36:25;31.83;69.10
66035;HTU21D;52805;51.074;5.842;2023-06-10T11:39:03;31.83;66.27
66035;HTU21D;52805;51.074;5.842;2023-06-10T11:41:30;31.85;67.52
66035;HTU21D;52805;51.074;5.842;2023-06-10T11:44:01;31.95;68.42
66035;HTU21D;52805;51.074;5.842;2023-06-10T11:46:27;32.02;67.55
66035;HTU21D;52805;51.074;5.842;2023-06-10T11:48:55;32.12;65.61
66035;HTU21D;52805;51.074;5.842;2023-06-10T11:51:21;32.16;65.36
66035;HTU21D;52805;51.074;5.842;2023-06-10T11:53:48;32.23;64.49
66035;HTU21D;52805;51.074;5.842;2023-06-10T11:56:25;32.28;58.80
66035;HTU21D;52805;51.074;5.842;2023-06-10T11:58:53;32.22;57.96
66035;HTU21D;52805;51.074;5.842;2023-06-10T12:01:21;32.22;57.95
66035;HTU21D;52805;51.074;5.842;2023-06-10T12:03:47;32.25;57.53
66035;HTU21D;52805;51.074;5.842;2023-06-10T12:06:13;32.30;58.00
66035;HTU21D;52805;51.074;5.842;2023-06-10T12:08:43;32.37;57.73
66035;HTU21D;52805;51.074;5.842;2023-06-10T12:11:09;32.47;58.87
66035;HTU21D;52805;51.074;5.842;2023-06-10T12:13:35;32.57;57.84
66035;HTU21D;52805;51.074;5.842;2023-06-10T12:16:08;32.61;56.71
66035;HTU21D;52805;51.074;5.842;2023-06-10T12:18:34;32.64;55.37
66035;HTU21D;52805;51.074;5.842;2023-06-10T12:21:00;32.75;56.00
66035;HTU21D;52805;51.074;5.842;2023-06-10T12:23:26;32.86;55.94
66035;HTU21D;52805;51.074;5.842;2023-06-10T12:25:57;32.97;54.59
66035;HTU21D;52805;51.074;5.842;2023-06-10T12:28:26;33.00;53.78
66035;HTU21D;52805;51.074;5.842;2023-06-10T12:31:08;32.96;50.18
66035;HTU21D;52805;51.074;5.842;2023-06-10T12:33:34;32.94;49.28
66035;HTU21D;52805;51.074;5.842;2023-06-10T12:35:59;33.02;48.92
66035;HTU21D;52805;51.074;5.842;2023-06-10T12:38:26;33.05;50.00
66035;HTU21D;52805;51.074;5.842;2023-06-10T12:40:54;33.17;50.24
66035;HTU21D;52805;51.074;5.842;2023-06-10T12:43:26;33.29;47.93
66035;HTU21D;52805;51.074;5.842;2023-06-10T12:45:52;33.37;48.05
66035;HTU21D;52805;51.074;5.842;2023-06-10T12:50:55;33.52;47.37
66035;HTU21D;52805;51.074;5.842;2023-06-10T12:53:22;33.60;47.29
66035;HTU21D;52805;51.074;5.842;2023-06-10T12:55:49;33.70;47.22
66035;HTU21D;52805;51.074;5.842;2023-06-10T12:58:15;33.75;46.95
66035;HTU21D;52805;51.074;5.842;2023-06-10T13:00:41;33.78;47.34
66035;HTU21D;52805;51.074;5.842;2023-06-10T13:03:09;33.83;45.95
66035;HTU21D;52805;51.074;5.842;2023-06-10T13:05:35;33.85;46.17
66035;HTU21D;52805;51.074;5.842;2023-06-10T13:08:05;33.92;44.93
66035;HTU21D;52805;51.074;5.842;2023-06-10T13:10:30;34.04;44.23
66035;HTU21D;52805;51.074;5.842;2023-06-10T13:12:56;34.17;44.51
66035;HTU21D;52805;51.074;5.842;2023-06-10T13:15:22;34.15;43.53
66035;HTU21D;52805;51.074;5.842;2023-06-10T13:17:48;33.99;43.51
66035;HTU21D;52805;51.074;5.842;2023-06-10T13:20:15;33.87;43.62
66035;HTU21D;52805;51.074;5.842;2023-06-10T13:22:44;33.72;44.50
66035;HTU21D;52805;51.074;5.842;2023-06-10T13:25:09;33.59;44.65
66035;HTU21D;52805;51.074;5.842;2023-06-10T13:27:35;33.45;45.48
66035;HTU21D;52805;51.074;5.842;2023-06-10T13:30:08;33.31;46.35
66035;HTU21D;52805;51.074;5.842;2023-06-10T13:32:35;33.41;46.91
66035;HTU21D;52805;51.074;5.842;2023-06-10T13:35:01;33.61;46.57
66035;HTU21D;52805;51.074;5.842;2023-06-10T13:37:27;33.80;47.34
66035;HTU21D;52805;51.074;5.842;2023-06-10T13:39:53;34.06;48.18
66035;HTU21D;52805;51.074;5.842;2023-06-10T13:42:19;34.34;48.47
66035;HTU21D;52805;51.074;5.842;2023-06-10T13:44:45;34.57;48.62
66035;HTU21D;52805;51.074;5.842;2023-06-10T13:47:11;34.81;48.05
66035;HTU21D;52805;51.074;5.842;2023-06-10T13:49:36;34.99;46.81
66035;HTU21D;52805;51.074;5.842;2023-06-10T13:52:03;35.19;45.78
66035;HTU21D;52805;51.074;5.842;2023-06-10T13:54:28;35.31;44.44
66035;HTU21D;52805;51.074;5.842;2023-06-10T13:56:54;35.42;44.33
66035;HTU21D;52805;51.074;5.842;2023-06-10T13:59:20;35.51;44.29
66035;HTU21D;52805;51.074;5.842;2023-06-10T14:01:47;35.55;44.45
66035;HTU21D;52805;51.074;5.842;2023-06-10T14:04:12;35.64;44.09
66035;HTU21D;52805;51.074;5.842;2023-06-10T14:06:38;35.69;43.33
66035;HTU21D;52805;51.074;5.842;2023-06-10T14:09:04;35.62;43.23
66035;HTU21D;52805;51.074;5.842;2023-06-10T14:11:30;35.58;44.15
66035;HTU21D;52805;51.074;5.842;2023-06-10T14:13:56;35.55;41.26
66035;HTU21D;52805;51.074;5.842;2023-06-10T14:16:23;35.44;40.77
66035;HTU21D;52805;51.074;5.842;2023-06-10T14:18:49;35.30;41.84
66035;HTU21D;52805;51.074;5.842;2023-06-10T14:21:17;35.34;42.81
66035;HTU21D;52805;51.074;5.842;2023-06-10T14:23:43;35.40;42.42
66035;HTU21D;52805;51.074;5.842;2023-06-10T14:26:09;35.41;41.00
66035;HTU21D;52805;51.074;5.842;2023-06-10T14:28:35;35.45;40.73
66035;HTU21D;52805;51.074;5.842;2023-06-10T14:31:01;35.55;40.42
66035;HTU21D;52805;51.074;5.842;2023-06-10T14:33:28;35.64;39.81
66035;HTU21D;52805;51.074;5.842;2023-06-10T14:35:54;35.72;39.27
66035;HTU21D;52805;51.074;5.842;2023-06-10T14:38:20;35.73;39.23
66035;HTU21D;52805;51.074;5.842;2023-06-10T14:40:46;35.82;39.30
66035;HTU21D;52805;51.074;5.842;2023-06-10T14:43:12;35.81;37.43
66035;HTU21D;52805;51.074;5.842;2023-06-10T14:45:39;35.80;36.44
66035;HTU21D;52805;51.074;5.842;2023-06-10T14:48:06;35.87;37.14
66035;HTU21D;52805;51.074;5.842;2023-06-10T14:50:34;36.02;37.32
66035;HTU21D;52805;51.074;5.842;2023-06-10T14:53:00;36.14;36.80
66035;HTU21D;52805;51.074;5.842;2023-06-10T14:55:25;36.21;36.95
66035;HTU21D;52805;51.074;5.842;2023-06-10T14:57:51;36.12;36.65
66035;HTU21D;52805;51.074;5.842;2023-06-10T15:00:17;35.94;37.28
66035;HTU21D;52805;51.074;5.842;2023-06-10T15:02:47;35.83;37.97
66035;HTU21D;52805;51.074;5.842;2023-06-10T15:05:14;35.85;38.22
66035;HTU21D;52805;51.074;5.842;2023-06-10T15:07:45;35.94;38.28
66035;HTU21D;52805;51.074;5.842;2023-06-10T15:10:11;36.02;38.61
66035;HTU21D;52805;51.074;5.842;2023-06-10T15:12:37;35.95;37.21
66035;HTU21D;52805;51.074;5.842;2023-06-10T15:15:03;35.69;37.13
66035;HTU21D;52805;51.074;5.842;2023-06-10T15:17:29;35.43;38.08
66035;HTU21D;52805;51.074;5.842;2023-06-10T15:19:55;35.29;39.48
66035;HTU21D;52805;51.074;5.842;2023-06-10T15:22:21;35.18;40.37
66035;HTU21D;52805;51.074;5.842;2023-06-10T15:24:47;35.01;39.88
66035;HTU21D;52805;51.074;5.842;2023-06-10T15:27:12;34.93;39.56